Time;durP1;ratioP1;P1;durP2;ratioP2;P2;SDS_P1;SDS_P2;PMS_P1;PMS_P2;Temp;Humidity;BMP_temperature;BMP_pressure;BME280_temperature;BME280_humidity;BME280_pressure;Samples;Min_cycle;Max_cycle;Signal;HPM_P1;HPM_P2
2023/09/08 00:00:09;;;;;;;6.55;4.88;;;;;;;23.85;55.83;101635.31;4922319;29;20277;-75
2023/09/08 00:02:34;;;;;;;8.45;5.15;;;;;;;23.84;55.77;101626.47;4922730;29;20473;-75
2023/09/08 00:05:00;;;;;;;6.32;4.70;;;;;;;23.85;55.84;101624.66;4923368;29;20117;-76
2023/09/08 00:07:25;;;;;;;7.15;4.97;;;;;;;23.84;55.86;101628.31;4922156;29;20438;-76
2023/09/08 00:09:51;;;;;;;6.20;4.47;;;;;;;23.84;55.68;101623.81;4922375;28;20083;-75
2023/09/08 00:12:16;;;;;;;6.35;4.55;;;;;;;23.83;55.69;101635.47;4923114;29;20067;-75
2023/09/08 00:14:41;;;;;;;6.47;4.78;;;;;;;23.83;55.89;101637.22;4922488;29;20122;-76
2023/09/08 00:17:07;;;;;;;8.48;4.35;;;;;;;23.83;55.59;101638.13;4922477;29;20870;-75
2023/09/08 00:19:32;;;;;;;5.80;4.65;;;;;;;23.83;55.69;101637.22;4922664;28;20299;-76
2023/09/08 00:21:58;;;;;;;6.10;4.63;;;;;;;23.83;55.74;101639.88;4921930;29;20032;-75
2023/09/08 00:24:24;;;;;;;7.32;4.68;;;;;;;23.82;56.01;101633.72;4922468;29;20039;-76
2023/09/08 00:26:49;;;;;;;7.00;4.90;;;;;;;23.82;55.76;101636.41;4922577;29;20035;-75
2023/09/08 00:29:14;;;;;;;6.85;4.78;;;;;;;23.82;55.54;101632.91;4921532;29;20383;-76
2023/09/08 00:31:39;;;;;;;5.68;4.07;;;;;;;23.82;55.57;101638.22;4922145;29;20047;-76
2023/09/08 00:34:06;;;;;;;7.03;4.47;;;;;;;23.82;55.87;101638.22;4922364;29;20047;-76
2023/09/08 00:36:31;;;;;;;7.70;5.05;;;;;;;23.81;55.44;101634.72;4922121;28;20024;-76
2023/09/08 00:38:56;;;;;;;7.35;4.65;;;;;;;23.80;55.56;101633.06;4922606;29;20051;-76
2023/09/08 00:41:23;;;;;;;6.78;4.70;;;;;;;23.79;55.65;101633.19;4923078;29;20889;-76
2023/09/08 00:43:49;;;;;;;7.03;4.70;;;;;;;23.80;55.66;101641.03;4921764;28;20039;-76
2023/09/08 00:46:15;;;;;;;6.55;4.80;;;;;;;23.80;55.57;101634.84;4922616;29;20054;-76
2023/09/08 00:48:41;;;;;;;6.65;4.80;;;;;;;23.79;55.56;101625.22;4922932;28;20032;-76
2023/09/08 00:51:09;;;;;;;6.75;4.60;;;;;;;23.79;55.84;101628.69;4922162;29;20118;-76
2023/09/08 00:53:37;;;;;;;7.50;5.28;;;;;;;23.79;55.63;101634.03;4923396;29;20090;-76
2023/09/08 00:56:02;;;;;;;6.47;4.93;;;;;;;23.80;55.42;101626.88;4921806;28;20044;-76
2023/09/08 00:58:29;;;;;;;6.35;4.70;;;;;;;23.79;55.36;101625.22;4922549;29;20027;-76
2023/09/08 01:00:57;;;;;;;6.40;4.50;;;;;;;23.77;55.65;101628.00;4922696;29;20143;-77
2023/09/08 01:03:26;;;;;;;6.07;4.63;;;;;;;23.79;55.38;101633.19;4923866;28;20504;-76
2023/09/08 01:05:52;;;;;;;5.85;4.38;;;;;;;23.78;55.57;101627.00;4925810;29;20039;-77
2023/09/08 01:08:18;;;;;;;7.53;4.72;;;;;;;23.77;55.33;101625.34;4924767;29;20448;-77
2023/09/08 01:10:45;;;;;;;6.68;4.40;;;;;;;23.78;55.41;101624.34;4925020;29;20087;-77
2023/09/08 01:13:10;;;;;;;7.50;4.38;;;;;;;23.77;55.66;101621.84;4926129;29;20062;-77
2023/09/08 01:15:38;;;;;;;6.45;4.63;;;;;;;23.77;55.33;101627.19;4925824;28;20130;-77
2023/09/08 01:18:04;;;;;;;6.30;4.65;;;;;;;23.76;55.39;101621.00;4926141;28;20036;-76
2023/09/08 01:20:59;;;;;;;8.23;4.80;;;;;;;23.76;55.45;101625.50;4925979;29;20118;-77
2023/09/08 01:23:38;;;;;;;6.18;4.50;;;;;;;23.76;55.57;101626.31;4926138;29;20055;-77
2023/09/08 01:26:08;;;;;;;6.68;4.90;;;;;;;23.77;55.29;101629.84;4924946;29;20391;-77
2023/09/08 01:28:34;;;;;;;7.20;4.80;;;;;;;23.77;55.37;101624.53;4926097;29;20043;-77
2023/09/08 01:31:00;;;;;;;6.07;4.45;;;;;;;23.76;55.21;101626.31;4925742;29;20039;-77
2023/09/08 01:33:26;;;;;;;5.88;4.78;;;;;;;23.74;55.34;101625.63;4925412;29;20080;-77
2023/09/08 01:35:52;;;;;;;7.43;4.70;;;;;;;23.75;55.41;101632.66;4925690;29;20043;-76
2023/09/08 01:38:18;;;;;;;6.32;4.80;;;;;;;23.75;55.09;101629.97;4925066;29;20433;-77
2023/09/08 01:40:44;;;;;;;6.55;4.88;;;;;;;23.75;55.53;101626.47;4926098;29;20102;-76
2023/09/08 01:43:09;;;;;;;6.85;4.55;;;;;;;23.74;55.04;101630.97;4926351;29;20048;-77
2023/09/08 01:45:34;;;;;;;6.95;4.50;;;;;;;23.75;55.25;101631.78;4924945;29;20195;-77
2023/09/08 01:48:00;;;;;;;6.80;4.75;;;;;;;23.73;55.02;101627.47;4925395;29;20039;-77
2023/09/08 01:50:25;;;;;;;6.22;4.65;;;;;;;23.74;55.01;101622.97;4925001;29;20115;-76
2023/09/08 01:52:51;;;;;;;6.38;4.60;;;;;;;23.73;55.20;101626.59;4924319;29;20488;-77
2023/09/08 01:55:16;;;;;;;5.70;4.70;;;;;;;23.73;54.95;101621.28;4925016;28;20036;-77
2023/09/08 01:57:43;;;;;;;5.78;4.45;;;;;;;23.72;54.95;101615.13;4925281;28;20044;-77
2023/09/08 02:00:09;;;;;;;8.13;4.55;;;;;;;23.72;54.94;101616.97;4924739;29;20035;-77
2023/09/08 02:02:35;;;;;;;6.47;4.90;;;;;;;23.71;55.13;101613.44;4925636;29;20035;-76
2023/09/08 02:05:00;;;;;;;6.23;4.70;;;;;;;23.72;55.07;101619.63;4925383;29;20405;-77
2023/09/08 02:07:25;;;;;;;6.38;4.55;;;;;;;23.71;54.88;101617.94;4924709;29;20273;-76
2023/09/08 02:09:50;;;;;;;8.53;4.87;;;;;;;23.72;55.18;101619.63;4923353;29;20027;-76
2023/09/08 02:12:16;;;;;;;6.28;4.68;;;;;;;23.72;55.26;101619.63;4925129;29;20308;-76
2023/09/08 02:14:41;;;;;;;6.28;4.30;;;;;;;23.72;54.88;101622.28;4924158;29;20039;-76
2023/09/08 02:17:06;;;;;;;6.30;4.50;;;;;;;23.72;54.80;101622.28;4924954;29;20055;-76
2023/09/08 02:19:32;;;;;;;6.30;4.97;;;;;;;23.72;55.01;101616.97;4923154;29;20099;-76
2023/09/08 02:21:57;;;;;;;6.50;4.85;;;;;;;23.70;54.88;101616.25;4923828;29;20446;-75
2023/09/08 02:24:22;;;;;;;6.40;4.68;;;;;;;23.71;54.96;101617.94;4924511;29;20039;-76
2023/09/08 02:26:48;;;;;;;7.05;4.93;;;;;;;23.71;54.91;101617.94;4924380;29;20038;-76
2023/09/08 02:29:13;;;;;;;7.22;4.63;;;;;;;23.71;54.88;101607.28;4922605;29;20066;-76
2023/09/08 02:31:38;;;;;;;6.82;5.00;;;;;;;23.70;54.71;101614.44;4922923;28;20062;-75
2023/09/08 02:34:04;;;;;;;6.38;5.18;;;;;;;23.70;54.94;101609.13;4924474;29;20904;-76
2023/09/08 02:36:29;;;;;;;6.13;4.97;;;;;;;23.68;54.57;101602.25;4924168;28;20047;-76
2023/09/08 02:38:55;;;;;;;7.03;4.63;;;;;;;23.69;54.86;101607.44;4924202;29;20043;-76
2023/09/08 02:41:22;;;;;;;7.15;4.85;;;;;;;23.69;54.84;101609.25;4924731;29;20032;-76
2023/09/08 02:43:47;;;;;;;7.97;4.78;;;;;;;23.68;54.76;101608.41;4924345;29;20039;-76
2023/09/08 02:46:13;;;;;;;7.80;5.20;;;;;;;23.69;54.72;101609.25;4924299;29;20027;-76
2023/09/08 02:48:38;;;;;;;7.00;4.75;;;;;;;23.69;54.70;101614.59;4923446;29;20075;-76
2023/09/08 02:51:04;;;;;;;6.80;4.38;;;;;;;23.68;54.89;101608.41;4924331;29;20067;-76
2023/09/08 02:53:29;;;;;;;5.82;4.45;;;;;;;23.69;54.64;101617.25;4923929;29;20121;-76
2023/09/08 02:55:55;;;;;;;6.40;4.40;;;;;;;23.67;54.70;101604.09;4923109;29;20048;-76
2023/09/08 02:58:21;;;;;;;6.40;4.43;;;;;;;23.67;54.86;101609.41;4924620;29;20040;-76
2023/09/08 03:00:46;;;;;;;6.50;4.55;;;;;;;23.67;54.80;101611.22;4924157;29;20027;-76
2023/09/08 03:03:11;;;;;;;6.72;4.47;;;;;;;23.67;54.71;101605.88;4923894;29;20036;-76
2023/09/08 03:05:39;;;;;;;7.63;5.00;;;;;;;23.66;54.79;101606.88;4923334;29;20035;-76
2023/09/08 03:08:05;;;;;;;6.65;4.78;;;;;;;23.67;55.03;101611.22;4923371;29;20493;-77
2023/09/08 03:10:33;;;;;;;7.55;4.90;;;;;;;23.67;54.50;101608.53;4923645;29;20034;-76
2023/09/08 03:13:00;;;;;;;6.88;4.80;;;;;;;23.66;54.74;101607.72;4923819;29;20118;-76
2023/09/08 03:15:27;;;;;;;6.13;4.68;;;;;;;23.66;54.74;101604.22;4923060;29;20069;-76
2023/09/08 03:17:58;;;;;;;6.50;4.57;;;;;;;23.65;54.78;101607.84;4922615;29;20063;-75
2023/09/08 03:20:28;;;;;;;6.53;4.80;;;;;;;23.65;54.55;101605.19;4923487;28;20416;-76
2023/09/08 03:22:54;;;;;;;6.53;4.60;;;;;;;23.65;54.66;101614.00;4923115;29;20070;-76
2023/09/08 03:25:19;;;;;;;5.63;4.38;;;;;;;23.65;54.86;101610.53;4922866;29;20134;-76
2023/09/08 03:27:44;;;;;;;7.18;4.82;;;;;;;23.64;54.69;101607.03;4923266;28;20034;-75
2023/09/08 03:30:10;;;;;;;6.25;4.60;;;;;;;23.64;54.72;101599.03;4923379;29;20516;-75
2023/09/08 03:32:36;;;;;;;6.53;5.00;;;;;;;23.64;54.83;101612.34;4922637;29;20417;-76
2023/09/08 03:35:03;;;;;;;7.20;4.68;;;;;;;23.64;54.47;101609.69;4923471;29;20027;-75
2023/09/08 03:37:29;;;;;;;7.60;5.15;;;;;;;23.65;54.63;101605.19;4922000;28;20571;-75
2023/09/08 03:39:54;;;;;;;7.82;4.70;;;;;;;23.63;54.82;101605.34;4922673;28;20039;-76
2023/09/08 03:42:20;;;;;;;6.78;5.20;;;;;;;23.63;54.74;101600.03;4923457;29;20125;-76
2023/09/08 03:44:48;;;;;;;7.00;5.22;;;;;;;23.62;54.69;101593.00;4923105;28;20047;-76
2023/09/08 03:47:13;;;;;;;7.53;4.97;;;;;;;23.63;54.51;101599.19;4923230;29;20318;-76
2023/09/08 03:49:38;;;;;;;6.40;4.70;;;;;;;23.63;54.37;101593.88;4922730;29;20030;-76
2023/09/08 03:52:04;;;;;;;7.97;5.15;;;;;;;23.61;54.71;101593.19;4922720;29;20039;-76
2023/09/08 03:54:30;;;;;;;7.78;4.78;;;;;;;23.62;54.76;101592.19;4923396;29;20071;-76
2023/09/08 03:56:55;;;;;;;6.40;4.70;;;;;;;23.61;54.44;101595.84;4922973;29;20455;-76
2023/09/08 03:59:20;;;;;;;5.60;4.30;;;;;;;23.62;54.63;101593.00;4922326;29;20150;-76
2023/09/08 04:01:46;;;;;;;7.40;4.85;;;;;;;23.61;54.67;101596.66;4922640;29;20031;-76
2023/09/08 04:04:11;;;;;;;7.45;4.95;;;;;;;23.61;54.57;101595.84;4923578;29;20380;-76
2023/09/08 04:06:39;;;;;;;7.30;4.40;;;;;;;23.60;54.82;101592.31;4922501;29;20132;-76
2023/09/08 04:09:05;;;;;;;6.00;4.47;;;;;;;23.60;54.65;101591.50;4922686;29;20282;-76
2023/09/08 04:11:30;;;;;;;7.15;4.90;;;;;;;23.61;54.53;101595.84;4922707;28;20028;-76
2023/09/08 04:13:55;;;;;;;5.63;4.47;;;;;;;23.61;54.64;101588.69;4921705;29;20532;-76
2023/09/08 04:16:20;;;;;;;7.07;4.60;;;;;;;23.61;54.44;101590.53;4922679;29;20099;-75
2023/09/08 04:18:46;;;;;;;6.30;4.50;;;;;;;23.59;54.78;101588.00;4922661;29;20063;-77
2023/09/08 04:21:11;;;;;;;6.10;4.75;;;;;;;23.61;54.55;101590.53;4921788;29;20492;-77
2023/09/08 04:23:36;;;;;;;6.57;4.38;;;;;;;23.60;54.44;101588.84;4922667;29;20036;-77
2023/09/08 04:26:02;;;;;;;6.40;4.80;;;;;;;23.59;54.62;101582.69;4922713;29;20118;-76
2023/09/08 04:28:27;;;;;;;5.97;4.63;;;;;;;23.59;54.77;101582.69;4921494;28;20036;-76
2023/09/08 04:30:52;;;;;;;6.38;4.88;;;;;;;23.58;54.32;101581.00;4922168;29;20152;-76
2023/09/08 04:33:18;;;;;;;6.63;4.43;;;;;;;23.58;54.51;101575.66;4922431;29;20134;-77
2023/09/08 04:35:43;;;;;;;7.65;4.60;;;;;;;23.59;54.59;101585.34;4921805;29;20278;-77
2023/09/08 04:38:08;;;;;;;6.57;4.68;;;;;;;23.59;54.69;101581.81;4924117;29;20063;-76
2023/09/08 04:40:34;;;;;;;8.80;4.63;;;;;;;23.59;54.70;101579.16;4926154;29;20042;-76
2023/09/08 04:42:59;;;;;;;7.05;5.07;;;;;;;23.59;54.50;101581.81;4925498;28;20298;-76
2023/09/08 04:45:25;;;;;;;6.18;4.35;;;;;;;23.58;54.50;101574.84;4926711;29;20032;-75
2023/09/08 04:47:50;;;;;;;6.55;4.63;;;;;;;23.58;54.31;101586.31;4925880;29;20453;-76
2023/09/08 04:50:15;;;;;;;6.35;4.82;;;;;;;23.57;54.48;101581.97;4925255;29;20035;-76
2023/09/08 04:52:41;;;;;;;6.35;5.10;;;;;;;23.57;54.44;101579.31;4926272;29;20051;-76
2023/09/08 04:55:09;;;;;;;7.38;4.80;;;;;;;23.55;54.73;101584.75;4925393;29;20118;-76
2023/09/08 04:57:35;;;;;;;7.50;5.82;;;;;;;23.57;54.49;101584.63;4926488;29;20027;-75
2023/09/08 05:00:00;;;;;;;6.85;4.65;;;;;;;23.57;54.44;101589.13;4924669;29;20363;-75
2023/09/08 05:02:25;;;;;;;7.50;4.80;;;;;;;23.57;54.58;101589.94;4925369;29;20687;-75
2023/09/08 05:04:51;;;;;;;6.00;4.53;;;;;;;23.57;54.38;101589.94;4925638;29;20032;-76
2023/09/08 05:07:18;;;;;;;7.28;4.88;;;;;;;23.57;54.48;101597.09;4925800;28;20032;-76
2023/09/08 05:09:43;;;;;;;8.23;5.25;;;;;;;23.55;54.50;101598.06;4925448;29;20471;-76
2023/09/08 05:12:09;;;;;;;6.82;4.85;;;;;;;23.55;54.63;101594.56;4925875;29;20035;-76
2023/09/08 05:14:34;;;;;;;6.38;4.55;;;;;;;23.55;54.60;101591.91;4925903;29;20032;-76
2023/09/08 05:16:59;;;;;;;6.15;4.88;;;;;;;23.55;54.50;101591.91;4925088;28;20067;-76
2023/09/08 05:19:25;;;;;;;6.50;4.80;;;;;;;23.55;54.34;101598.06;4925884;29;20040;-76
2023/09/08 05:21:51;;;;;;;7.03;5.10;;;;;;;23.54;54.48;101598.22;4924780;29;20397;-76
2023/09/08 05:24:17;;;;;;;6.43;4.55;;;;;;;23.54;54.37;101607.06;4924321;28;20119;-76
2023/09/08 05:26:42;;;;;;;7.43;4.95;;;;;;;23.53;54.50;101597.38;4925414;29;20159;-76
2023/09/08 05:29:07;;;;;;;8.40;5.15;;;;;;;23.54;54.50;101595.56;4925376;29;20039;-76
2023/09/08 05:31:33;;;;;;;6.55;4.65;;;;;;;23.54;54.49;101593.75;4924853;29;20401;-76
2023/09/08 05:33:58;;;;;;;6.15;5.00;;;;;;;23.54;54.76;101592.88;4925052;29;20035;-76
2023/09/08 05:36:24;;;;;;;7.32;4.95;;;;;;;23.53;54.25;101596.56;4925977;29;20485;-76
2023/09/08 05:38:49;;;;;;;7.70;4.85;;;;;;;23.54;54.63;101606.19;4924543;29;20028;-77
2023/09/08 05:41:14;;;;;;;7.80;4.70;;;;;;;23.53;54.48;101607.19;4925608;28;20110;-73
2023/09/08 05:43:40;;;;;;;6.10;4.47;;;;;;;23.54;55.00;101607.06;4923434;29;20040;-75
2023/09/08 05:46:05;;;;;;;6.90;4.60;;;;;;;23.54;54.95;101619.50;4924651;29;20032;-75
2023/09/08 05:48:31;;;;;;;6.68;4.40;;;;;;;23.55;54.72;101618.53;4924540;29;20481;-74
2023/09/08 05:50:56;;;;;;;7.43;4.57;;;;;;;23.56;54.59;101614.88;4925717;29;20503;-75
2023/09/08 05:53:22;;;;;;;8.32;5.40;;;;;;;23.57;54.48;101615.72;4924683;29;20094;-73
2023/09/08 05:55:47;;;;;;;7.90;5.05;;;;;;;23.61;54.88;101611.81;4925679;29;20031;-74
2023/09/08 05:58:12;;;;;;;6.88;4.72;;;;;;;23.64;54.87;101616.81;4925312;29;20401;-74
2023/09/08 06:00:38;;;;;;;6.50;4.93;;;;;;;23.62;55.14;101610.81;4938989;28;20048;-73
2023/09/08 06:03:03;;;;;;;9.50;4.85;;;;;;;23.64;54.68;101615.00;4925278;29;20099;-74
2023/09/08 06:05:29;;;;;;;6.43;4.45;;;;;;;23.64;54.74;101608.81;4924573;29;20055;-75
2023/09/08 06:07:54;;;;;;;9.18;5.35;;;;;;;23.64;54.83;101608.81;4925121;29;20078;-76
2023/09/08 06:10:19;;;;;;;6.68;4.68;;;;;;;23.65;55.13;101615.84;4925326;29;20046;-76
2023/09/08 06:12:45;;;;;;;7.35;4.90;;;;;;;23.65;55.02;101616.66;4924349;29;20036;-76
2023/09/08 06:15:10;;;;;;;7.38;4.65;;;;;;;23.65;55.28;101615.84;4925593;28;20039;-78
2023/09/08 06:17:35;;;;;;;7.78;4.93;;;;;;;23.66;55.13;101625.50;4926100;29;20115;-75
2023/09/08 06:20:01;;;;;;;10.10;5.10;;;;;;;23.66;55.48;101620.19;4924486;29;20043;-74
2023/09/08 06:22:27;;;;;;;8.55;5.10;;;;;;;23.64;55.02;101633.63;4925056;29;20393;-76
2023/09/08 06:24:52;;;;;;;8.18;4.78;;;;;;;23.66;55.46;101629.00;4922683;29;20450;-78
2023/09/08 06:27:17;;;;;;;6.50;4.72;;;;;;;23.68;55.19;101632.34;4924021;29;20039;-76
2023/09/08 06:29:43;;;;;;;7.22;4.68;;;;;;;23.66;55.10;101634.31;4923574;29;20039;-74
2023/09/08 06:32:09;;;;;;;8.93;4.70;;;;;;;23.67;55.52;101622.72;4924934;29;20036;-74
2023/09/08 06:34:35;;;;;;;8.32;5.28;;;;;;;23.68;55.57;101620.88;4919060;29;20045;-69
2023/09/08 06:37:01;;;;;;;7.47;5.40;;;;;;;23.67;55.65;101627.16;4923519;28;20031;-76
2023/09/08 06:39:26;;;;;;;8.55;5.10;;;;;;;23.65;55.37;101634.47;4923996;29;20469;-70
2023/09/08 06:41:52;;;;;;;8.77;5.43;;;;;;;23.64;55.58;101628.31;4922974;28;20032;-71
2023/09/08 06:44:17;;;;;;;7.72;4.93;;;;;;;23.62;56.00;101632.09;4923447;29;20032;-71
2023/09/08 06:46:42;;;;;;;9.52;5.32;;;;;;;23.63;55.60;101631.94;4923691;29;20492;-76
2023/09/08 06:49:07;;;;;;;8.20;5.50;;;;;;;23.64;55.74;101623.00;4923176;29;20580;-73
2023/09/08 06:51:33;;;;;;;8.23;5.28;;;;;;;23.72;55.54;101627.59;4924105;29;20043;-78
2023/09/08 06:53:59;;;;;;;7.57;5.40;;;;;;;23.76;55.71;101630.81;4923837;28;20211;-73
2023/09/08 06:56:25;;;;;;;7.78;5.18;;;;;;;23.79;55.36;101631.34;4923976;29;20035;-75
2023/09/08 06:58:51;;;;;;;5.90;4.55;;;;;;;23.78;54.99;101634.16;4924404;29;20046;-73
2023/09/08 07:01:17;;;;;;;9.30;5.03;;;;;;;23.78;55.41;101640.31;4922725;29;20042;-74
2023/09/08 07:03:42;;;;;;;8.48;4.65;;;;;;;23.79;55.58;101641.19;4923692;29;20090;-74
2023/09/08 07:06:07;;;;;;;7.70;5.20;;;;;;;23.78;55.19;101637.66;4924034;29;20166;-74
2023/09/08 07:08:33;;;;;;;7.27;5.00;;;;;;;23.77;55.99;101633.34;4924191;29;20090;-72
2023/09/08 07:10:58;;;;;;;7.05;4.88;;;;;;;23.77;56.08;101633.34;4922854;29;20277;-73
2023/09/08 07:13:23;;;;;;;6.68;4.63;;;;;;;23.77;55.97;101638.66;4923916;29;20036;-72
2023/09/08 07:15:48;;;;;;;6.28;4.63;;;;;;;23.76;56.15;101628.97;4922481;29;20048;-73
2023/09/08 07:18:14;;;;;;;8.40;4.87;;;;;;;23.78;55.94;101636.81;4923413;29;20047;-73
2023/09/08 07:20:39;;;;;;;10.18;5.50;;;;;;;23.77;56.18;101636.00;4923828;29;20293;-73
2023/09/08 07:23:05;;;;;;;7.32;5.05;;;;;;;23.78;55.87;101642.97;4923983;29;20126;-72
2023/09/08 07:25:31;;;;;;;8.32;5.22;;;;;;;23.79;56.04;101638.50;4923853;29;20036;-73
2023/09/08 07:27:56;;;;;;;7.78;4.63;;;;;;;23.79;56.37;101642.00;4938211;28;20091;-78
2023/09/08 07:30:21;;;;;;;8.23;4.85;;;;;;;23.80;56.21;101640.16;4922847;29;20118;-75
2023/09/08 07:32:47;;;;;;;7.97;5.00;;;;;;;23.81;56.20;101641.88;4924448;29;20046;-78
2023/09/08 07:35:14;;;;;;;7.28;5.32;;;;;;;23.81;56.43;101645.34;4923713;29;20046;-76
2023/09/08 07:37:41;;;;;;;8.00;4.95;;;;;;;23.81;56.34;101649.84;4922738;28;20101;-76
2023/09/08 07:40:11;;;;;;;10.07;5.25;;;;;;;23.78;56.25;101636.81;4923758;29;20481;-76
2023/09/08 07:42:36;;;;;;;9.90;5.30;;;;;;;23.81;56.27;101641.88;4923223;29;20044;-76
2023/09/08 07:45:01;;;;;;;7.57;5.00;;;;;;;23.82;56.33;101639.06;4922634;29;20039;-76
2023/09/08 07:47:27;;;;;;;8.10;4.97;;;;;;;23.82;56.23;101643.56;4923895;29;20070;-75
2023/09/08 07:50:19;;;;;;;7.47;5.10;;;;;;;23.82;56.46;101639.06;4922530;29;20481;-74
2023/09/08 07:52:45;;;;;;;7.00;4.47;;;;;;;23.82;56.64;101641.72;4924216;29;20043;-76
2023/09/08 07:55:10;;;;;;;10.30;5.13;;;;;;;23.83;56.66;101638.13;4922889;29;20417;-76
2023/09/08 07:57:36;;;;;;;7.35;4.93;;;;;;;23.83;56.53;101637.22;4923374;28;20036;-76
2023/09/08 08:00:02;;;;;;;8.75;5.32;;;;;;;23.84;56.44;101630.97;4922544;28;20032;-76
2023/09/08 08:02:27;;;;;;;11.55;5.80;;;;;;;23.84;56.47;101631.78;4923459;29;21156;-76
2023/09/08 08:04:52;;;;;;;8.48;5.20;;;;;;;23.85;56.51;101627.34;4922938;29;20039;-76
2023/09/08 08:07:18;;;;;;;9.32;5.53;;;;;;;23.85;56.64;101635.31;4922632;29;20036;-76
2023/09/08 08:09:43;;;;;;;10.17;5.10;;;;;;;23.84;56.58;101629.13;4922403;29;20042;-77
2023/09/08 08:12:08;;;;;;;7.95;4.95;;;;;;;23.85;56.38;101630.00;4922252;29;20274;-77
2023/09/08 08:14:33;;;;;;;11.57;5.07;;;;;;;23.85;56.22;101633.47;4922749;29;20043;-77
2023/09/08 08:16:59;;;;;;;8.43;5.47;;;;;;;23.86;56.10;101631.66;4922391;28;20466;-76
2023/09/08 08:19:24;;;;;;;8.48;5.70;;;;;;;23.86;56.52;101629.00;4922026;29;20324;-73
2023/09/08 08:21:49;;;;;;;7.82;5.45;;;;;;;23.87;56.41;101638.66;4922167;29;20042;-70
2023/09/08 08:24:16;;;;;;;9.90;5.80;;;;;;;23.88;56.36;101638.53;4923373;29;20201;-74
2023/09/08 08:26:41;;;;;;;8.07;5.25;;;;;;;23.94;56.49;101641.59;4918625;28;20099;-74
2023/09/08 08:29:06;;;;;;;9.55;5.82;;;;;;;23.98;56.39;101638.50;4920631;28;20039;-71
2023/09/08 08:31:33;;;;;;;9.63;5.18;;;;;;;24.01;56.78;101637.38;4921574;29;20035;-73
2023/09/08 08:33:58;;;;;;;9.18;5.55;;;;;;;24.03;56.62;101644.22;4920562;28;20044;-71
2023/09/08 08:36:23;;;;;;;7.90;5.45;;;;;;;24.04;56.13;101645.06;4920336;29;20062;-72
2023/09/08 08:38:48;;;;;;;7.28;5.40;;;;;;;24.05;56.56;101644.06;4922701;29;20036;-70
2023/09/08 08:41:14;;;;;;;8.10;5.37;;;;;;;24.07;56.62;101639.47;4922310;29;20378;-77
2023/09/08 08:43:40;;;;;;;8.02;5.68;;;;;;;24.08;56.41;101647.31;4922261;29;20349;-69
2023/09/08 08:46:06;;;;;;;7.22;5.80;;;;;;;24.09;56.67;101648.13;4921724;29;20043;-72
2023/09/08 08:48:33;;;;;;;7.65;5.63;;;;;;;24.12;56.64;101649.69;4921684;29;20111;-74
2023/09/08 08:51:00;;;;;;;11.75;5.78;;;;;;;24.15;56.23;101650.22;4921563;29;20039;-73
2023/09/08 08:53:25;;;;;;;9.55;5.45;;;;;;;24.17;56.37;101640.25;4921678;29;20536;-73
2023/09/08 08:55:56;;;;;;;10.70;5.93;;;;;;;24.19;56.40;101643.59;4922344;29;20036;-69
2023/09/08 08:58:25;;;;;;;7.97;5.25;;;;;;;24.23;56.37;101636.19;4922437;29;20024;-75
2023/09/08 09:00:53;;;;;;;9.63;5.88;;;;;;;24.25;56.40;101639.53;4936061;28;20040;-73
2023/09/08 09:03:20;;;;;;;9.07;5.60;;;;;;;24.27;56.40;101638.41;4921121;28;20045;-75
2023/09/08 09:05:45;;;;;;;12.82;5.68;;;;;;;24.26;56.47;101636.72;4921451;29;20040;-77
2023/09/08 09:08:13;;;;;;;11.25;6.20;;;;;;;24.26;56.81;101634.06;4923056;29;20048;-70
2023/09/08 09:10:38;;;;;;;8.00;5.50;;;;;;;24.32;56.52;101634.44;4920165;29;20099;-78
2023/09/08 09:13:05;;;;;;;10.02;5.20;;;;;;;24.32;56.85;101629.13;4921811;29;20039;-69
2023/09/08 09:15:32;;;;;;;10.35;5.43;;;;;;;24.32;56.77;101637.94;4921440;29;20473;-72
2023/09/08 09:18:16;;;;;;;9.13;5.28;;;;;;;24.32;56.99;101639.78;4922237;28;20031;-69
2023/09/08 09:21:02;;;;;;;9.52;5.80;;;;;;;24.34;56.87;101636.00;4921171;29;20065;-79
2023/09/08 09:23:33;;;;;;;15.43;5.47;;;;;;;24.34;56.82;101630.66;4921309;29;20039;-73
2023/09/08 09:25:59;;;;;;;8.73;5.10;;;;;;;24.40;56.63;101631.88;4924919;29;20404;-77
2023/09/08 09:28:25;;;;;;;9.95;5.78;;;;;;;24.38;56.76;101628.53;4924960;28;20051;-71
2023/09/08 09:30:52;;;;;;;7.93;5.13;;;;;;;24.37;57.22;101630.38;4924148;29;20034;-76
2023/09/08 09:33:17;;;;;;;8.25;5.53;;;;;;;24.38;56.94;101631.19;4924987;29;20158;-76
2023/09/08 09:35:44;;;;;;;10.80;5.45;;;;;;;24.40;56.91;101632.75;4924511;29;20210;-77
2023/09/08 09:38:11;;;;;;;8.48;5.20;;;;;;;24.42;56.48;101630.75;4924220;29;20027;-71
2023/09/08 09:40:36;;;;;;;9.65;6.10;;;;;;;24.41;56.78;101628.25;4924659;29;20039;-82
2023/09/08 09:43:04;;;;;;;6.88;4.97;;;;;;;24.39;56.92;101630.22;4925395;29;20441;-70
2023/09/08 09:45:30;;;;;;;11.60;5.43;;;;;;;24.40;57.19;101634.56;4924644;29;20082;-74
2023/09/08 09:47:56;;;;;;;8.60;5.47;;;;;;;24.39;57.03;101631.06;4925667;29;20632;-73
2023/09/08 09:50:50;;;;;;;11.13;5.03;;;;;;;24.39;56.89;101628.41;4925224;29;20036;-74
2023/09/08 09:53:16;;;;;;;6.55;5.05;;;;;;;24.42;56.71;101630.75;4923878;29;20032;-80
2023/09/08 09:55:45;;;;;;;7.53;5.38;;;;;;;24.42;56.91;101633.44;4923971;29;20036;-74
2023/09/08 09:58:11;;;;;;;8.00;5.20;;;;;;;24.43;56.70;101634.25;4923822;28;20040;-76
2023/09/08 10:00:40;;;;;;;10.25;5.40;;;;;;;24.41;57.02;101634.41;4924003;29;20035;-76
2023/09/08 10:03:06;;;;;;;8.52;5.35;;;;;;;24.42;56.95;101628.09;4922955;29;20503;-75
2023/09/08 10:05:32;;;;;;;6.65;4.80;;;;;;;24.43;57.02;101626.25;4924017;29;20047;-83
2023/09/08 10:07:58;;;;;;;8.15;5.38;;;;;;;24.45;56.67;101624.31;4925405;29;20763;-72
2023/09/08 10:10:27;;;;;;;7.72;5.25;;;;;;;24.43;56.67;101629.78;4925514;29;20508;-83
2023/09/08 10:12:53;;;;;;;7.78;4.82;;;;;;;24.46;57.20;101625.97;4923501;29;20051;-79
2023/09/08 10:15:24;;;;;;;8.18;5.07;;;;;;;24.44;57.04;101630.63;4923342;29;20055;-78
2023/09/08 10:17:59;;;;;;;7.55;5.40;;;;;;;24.42;56.91;101627.28;4923683;29;20459;-74
2023/09/08 10:20:26;;;;;;;7.68;4.80;;;;;;;24.43;57.04;101631.59;4923953;29;20186;-71
2023/09/08 10:22:56;;;;;;;6.93;4.60;;;;;;;24.41;57.23;101633.56;4922353;29;20040;-75
2023/09/08 10:25:25;;;;;;;7.65;5.22;;;;;;;24.45;57.20;101629.66;4925522;29;20067;-73
2023/09/08 10:27:50;;;;;;;6.57;4.88;;;;;;;24.45;56.93;101629.66;4923521;29;20404;-72
2023/09/08 10:30:17;;;;;;;7.40;5.03;;;;;;;24.44;57.04;101627.94;4925434;29;20038;-71
2023/09/08 10:32:43;;;;;;;8.30;5.00;;;;;;;24.43;56.98;101628.94;4925142;29;20510;-75
2023/09/08 10:35:09;;;;;;;6.93;4.47;;;;;;;24.42;57.07;101628.09;4923264;29;20040;-77
2023/09/08 10:37:35;;;;;;;8.10;4.82;;;;;;;24.38;57.33;101626.69;4924402;29;20336;-75
2023/09/08 10:40:26;;;;;;;7.60;5.18;;;;;;;24.34;57.71;101627.16;4921939;29;20059;-71
2023/09/08 10:43:06;;;;;;;7.15;5.05;;;;;;;24.33;57.43;101630.81;4923367;28;20489;-73
2023/09/08 10:45:32;;;;;;;8.73;4.80;;;;;;;24.32;57.89;101629.94;4924591;29;20043;-77
2023/09/08 10:47:57;;;;;;;7.90;4.83;;;;;;;24.31;58.02;101614.97;4922853;29;20031;-69
2023/09/08 10:50:31;;;;;;;8.93;5.18;;;;;;;24.29;57.97;101618.75;4923395;29;20304;-71
2023/09/08 10:53:17;;;;;;;5.70;4.53;;;;;;;24.28;57.96;101623.25;4922598;29;20054;-68
2023/09/08 10:55:47;;;;;;;6.72;4.68;;;;;;;24.27;58.10;101625.09;4922693;29;20032;-78
2023/09/08 10:58:28;;;;;;;6.65;4.75;;;;;;;24.26;58.00;101620.75;4923042;29;20319;-69
2023/09/08 11:00:59;;;;;;;9.93;4.93;;;;;;;24.27;58.17;101617.09;4923093;29;20507;-73
2023/09/08 11:03:37;;;;;;;6.45;4.50;;;;;;;24.26;57.77;101620.75;4923699;29;21231;-75
2023/09/08 11:06:03;;;;;;;7.65;5.20;;;;;;;24.26;57.88;101615.41;4923794;29;20043;-68
2023/09/08 11:08:28;;;;;;;7.05;4.75;;;;;;;24.26;57.72;101614.59;4922636;29;20674;-74
2023/09/08 11:10:54;;;;;;;7.22;4.68;;;;;;;24.27;57.91;101611.78;4922994;29;20547;-70
2023/09/08 11:13:20;;;;;;;6.68;4.90;;;;;;;24.25;58.25;101616.38;4923310;29;20095;-73
2023/09/08 11:15:45;;;;;;;8.23;5.82;;;;;;;24.25;58.54;101615.56;4922320;29;20063;-68
2023/09/08 11:18:10;;;;;;;7.40;4.70;;;;;;;24.26;58.51;101614.59;4923530;29;20486;-72
2023/09/08 11:20:36;;;;;;;7.10;4.90;;;;;;;24.24;58.22;101608.53;4923228;29;20266;-69